TimeCST,TemperatureF,Dew PointF,Humidity,Sea Level PressureIn,VisibilityMPH,Wind Direction,Wind SpeedMPH,Gust SpeedMPH,PrecipitationIn,Events,Conditions,WindDirDegrees,DateUTC
12:53 AM,46.9,43.0,86,29.83,10.0,SSE,20.7,-,0.01,,Overcast,150,2012-12-15 06:53:00
1:00 AM,46.4,42.8,87,29.83,10.0,SSE,20.7,-,N/A,,Overcast,160,2012-12-15 07:00:00
1:20 AM,46.4,42.8,87,29.83,10.0,SSE,18.4,-,N/A,,Overcast,150,2012-12-15 07:20:00
1:53 AM,48.0,44.1,86,29.81,10.0,SSE,18.4,27.6,0.00,Rain,Light Rain,160,2012-12-15 07:53:00
2:17 AM,48.2,46.4,93,29.82,6.0,South,13.8,-,0.05,Rain,Light Rain,170,2012-12-15 08:17:00
2:53 AM,48.0,46.0,93,29.78,10.0,SSE,19.6,27.6,0.05,,Overcast,160,2012-12-15 08:53:00
3:20 AM,48.2,46.4,93,29.78,10.0,SSE,15.0,24.2,N/A,,Overcast,160,2012-12-15 09:20:00
3:26 AM,48.2,46.4,93,29.78,10.0,SSE,11.5,-,N/A,,Overcast,160,2012-12-15 09:26:00
3:53 AM,48.9,46.9,93,29.79,10.0,SSE,9.2,18.4,N/A,,Overcast,160,2012-12-15 09:53:00
4:53 AM,50.0,46.9,89,29.76,10.0,SSE,10.4,-,N/A,,Overcast,150,2012-12-15 10:53:00
5:37 AM,50.0,48.2,94,29.76,10.0,SSE,11.5,-,N/A,,Overcast,160,2012-12-15 11:37:00
5:53 AM,48.9,48.0,97,29.75,10.0,SSE,15.0,-,N/A,,Mostly Cloudy,150,2012-12-15 11:53:00
6:04 AM,48.2,46.4,93,29.75,10.0,SSE,16.1,-,N/A,,Scattered Clouds,160,2012-12-15 12:04:00
6:53 AM,48.9,46.9,93,29.76,10.0,SSE,9.2,-,N/A,,Clear,160,2012-12-15 12:53:00
7:53 AM,53.1,46.9,80,29.76,10.0,South,10.4,-,N/A,,Clear,180,2012-12-15 13:53:00
8:53 AM,55.9,45.0,67,29.76,10.0,South,10.4,17.3,N/A,,Clear,190,2012-12-15 14:53:00
9:53 AM,59.0,42.1,53,29.76,10.0,SSW,10.4,19.6,N/A,,Clear,200,2012-12-15 15:53:00
10:53 AM,61.0,39.0,44,29.75,10.0,SW,11.5,25.3,N/A,,Clear,230,2012-12-15 16:53:00
11:53 AM,64.0,37.0,37,29.73,10.0,SW,9.2,27.6,N/A,,Clear,230,2012-12-15 17:53:00
12:53 PM,64.9,35.1,33,29.71,10.0,SW,12.7,21.9,N/A,,Clear,220,2012-12-15 18:53:00
1:53 PM,64.9,32.0,29,29.69,10.0,SW,11.5,21.9,N/A,,Clear,230,2012-12-15 19:53:00
2:53 PM,64.0,32.0,30,29.69,10.0,SW,11.5,19.6,N/A,,Clear,220,2012-12-15 20:53:00
3:53 PM,62.1,32.0,32,29.70,10.0,SSW,8.1,-,N/A,,Clear,210,2012-12-15 21:53:00
4:53 PM,59.0,32.0,36,29.71,10.0,SSW,6.9,-,N/A,,Clear,210,2012-12-15 22:53:00
5:53 PM,57.0,32.0,39,29.74,10.0,SW,6.9,-,N/A,,Clear,220,2012-12-15 23:53:00
6:53 PM,55.9,32.0,40,29.76,10.0,SW,4.6,-,N/A,,Clear,220,2012-12-16 00:53:00
7:53 PM,57.0,30.9,37,29.76,10.0,WSW,5.8,-,N/A,,Clear,240,2012-12-16 01:53:00
8:53 PM,55.9,30.9,39,29.76,10.0,West,4.6,-,N/A,,Clear,260,2012-12-16 02:53:00
9:53 PM,55.0,30.0,38,29.76,10.0,Calm,Calm,-,N/A,,Clear,0,2012-12-16 03:53:00
10:53 PM,55.9,30.9,39,29.75,10.0,WSW,8.1,18.4,N/A,,Clear,250,2012-12-16 04:53:00
11:53 PM,55.0,30.9,40,29.75,10.0,West,6.9,-,N/A,,Clear,260,2012-12-16 05:53:00